AAY1048 KEYW-KPIE
Flight info
| Callsign | AAY1048 |
|---|---|
| Flight time | 0h 43m |
| Altitude | 20000 |
| Route | BUFTT1 GUFFS FERAL BLFRG3 |
| Aircraft | A319/M-SDE3FGHIRWY/LB1 |
Departure
| Time | 2026-04-27 00:25 |
|---|---|
| Airport | Key West International Airport (KEYW) |
Arrival
| Time | 2026-04-27 01:09 |
|---|---|
| Airport | St. Petersburg Clearwater International Airport (KPIE) |
| Time | Latitude | Longitude | Altitude | Speed | Heading |
|---|---|---|---|---|---|
| 2026-04-27 00:01 | 24.55433 | -81.75298 | 12 ft | 0 kts | 180° |
| 2026-04-27 00:19 | 24.55447 | -81.75298 | 12 ft | 4 kts | 175° |
| 2026-04-27 00:19 | 24.55472 | -81.75306 | 13 ft | 4 kts | 138° |
| 2026-04-27 00:19 | 24.55485 | -81.75326 | 12 ft | 1 kts | 109° |
| 2026-04-27 00:19 | 24.55486 | -81.75331 | 12 ft | 0 kts | 109° |
| 2026-04-27 00:22 | 24.55486 | -81.75322 | 12 ft | 2 kts | 88° |
| 2026-04-27 00:22 | 24.55502 | -81.75318 | 13 ft | 4 kts | 359° |
| 2026-04-27 00:23 | 24.55532 | -81.75296 | 14 ft | 6 kts | 74° |
| 2026-04-27 00:23 | 24.55533 | -81.75265 | 12 ft | 0 kts | 81° |
| 2026-04-27 00:23 | 24.55535 | -81.75257 | 12 ft | 3 kts | 73° |
| 2026-04-27 00:24 | 24.55563 | -81.75241 | 14 ft | 6 kts | 8° |
| 2026-04-27 00:24 | 24.55613 | -81.75243 | 13 ft | 5 kts | 332° |
| 2026-04-27 00:24 | 24.55618 | -81.75265 | 13 ft | 0 kts | 269° |
| 2026-04-27 00:25 | 24.55615 | -81.75473 | 15 ft | 71 kts | 269° |
| 2026-04-27 00:25 | 24.55610 | -81.76333 | 56 ft | 143 kts | 270° |
| 2026-04-27 00:25 | 24.55580 | -81.77411 | 743 ft | 143 kts | 272° |
| 2026-04-27 00:25 | 24.55948 | -81.78419 | 1326 ft | 149 kts | 316° |
| 2026-04-27 00:26 | 24.56879 | -81.78961 | 1934 ft | 160 kts | 348° |
| 2026-04-27 00:26 | 24.58037 | -81.79186 | 2305 ft | 180 kts | 349° |
| 2026-04-27 00:26 | 24.59356 | -81.79438 | 2651 ft | 204 kts | 349° |
| 2026-04-27 00:26 | 24.60837 | -81.79723 | 2986 ft | 229 kts | 349° |
| 2026-04-27 00:27 | 24.62489 | -81.80045 | 3448 ft | 253 kts | 349° |
| 2026-04-27 00:27 | 24.64263 | -81.80209 | 4140 ft | 267 kts | 8° |
| 2026-04-27 00:27 | 24.65960 | -81.79343 | 4998 ft | 276 kts | 38° |
| 2026-04-27 00:27 | 24.67364 | -81.77883 | 5935 ft | 280 kts | 45° |
| 2026-04-27 00:28 | 24.68685 | -81.76295 | 6843 ft | 283 kts | 47° |
| 2026-04-27 00:28 | 24.69993 | -81.74648 | 7703 ft | 288 kts | 47° |
| 2026-04-27 00:28 | 24.71318 | -81.72978 | 8564 ft | 292 kts | 46° |
| 2026-04-27 00:28 | 24.72678 | -81.71292 | 9432 ft | 297 kts | 45° |
| 2026-04-27 00:29 | 24.74079 | -81.69605 | 10227 ft | 303 kts | 44° |
| 2026-04-27 00:29 | 24.75573 | -81.67848 | 10551 ft | 326 kts | 44° |
| 2026-04-27 00:29 | 24.77183 | -81.65981 | 10918 ft | 344 kts | 44° |
| 2026-04-27 00:29 | 24.78828 | -81.64075 | 11585 ft | 351 kts | 44° |
| 2026-04-27 00:30 | 24.80518 | -81.62113 | 12331 ft | 355 kts | 44° |
| 2026-04-27 00:30 | 24.82296 | -81.60212 | 13074 ft | 357 kts | 36° |
| 2026-04-27 00:30 | 24.84366 | -81.58718 | 13806 ft | 357 kts | 24° |
| 2026-04-27 00:30 | 24.86667 | -81.57713 | 14450 ft | 357 kts | 15° |
| 2026-04-27 00:31 | 24.89040 | -81.56875 | 15102 ft | 360 kts | 15° |
| 2026-04-27 00:31 | 24.91438 | -81.56020 | 15750 ft | 364 kts | 15° |
| 2026-04-27 00:31 | 24.93855 | -81.55151 | 16396 ft | 367 kts | 15° |
| 2026-04-27 00:31 | 24.96293 | -81.54268 | 17027 ft | 371 kts | 15° |
| 2026-04-27 00:32 | 24.98723 | -81.53385 | 17654 ft | 375 kts | 15° |
| 2026-04-27 00:32 | 25.01210 | -81.52481 | 18281 ft | 378 kts | 15° |
| 2026-04-27 00:32 | 25.03725 | -81.51568 | 18833 ft | 382 kts | 15° |
| 2026-04-27 00:32 | 25.06259 | -81.50649 | 19387 ft | 385 kts | 14° |
| 2026-04-27 00:33 | 25.08816 | -81.49723 | 19847 ft | 389 kts | 14° |
| 2026-04-27 00:33 | 25.11388 | -81.48795 | 19982 ft | 390 kts | 14° |
| 2026-04-27 00:33 | 25.14001 | -81.47852 | 20013 ft | 399 kts | 14° |
| 2026-04-27 00:33 | 25.16612 | -81.46908 | 20014 ft | 401 kts | 14° |
| 2026-04-27 00:34 | 25.19258 | -81.45948 | 20011 ft | 401 kts | 14° |
| 2026-04-27 00:34 | 25.21907 | -81.44985 | 20012 ft | 401 kts | 14° |
| 2026-04-27 00:34 | 25.24562 | -81.44022 | 20011 ft | 401 kts | 14° |
| 2026-04-27 00:34 | 25.27212 | -81.43060 | 20015 ft | 401 kts | 14° |
| 2026-04-27 00:35 | 25.29863 | -81.42093 | 20011 ft | 401 kts | 15° |
| 2026-04-27 00:35 | 25.32513 | -81.41126 | 19977 ft | 401 kts | 14° |
| 2026-04-27 00:35 | 25.35163 | -81.40162 | 19977 ft | 401 kts | 14° |
| 2026-04-27 00:35 | 25.37813 | -81.39201 | 19977 ft | 401 kts | 14° |
| 2026-04-27 00:36 | 25.40431 | -81.38251 | 19985 ft | 401 kts | 14° |
| 2026-04-27 00:36 | 25.43083 | -81.37290 | 19973 ft | 401 kts | 14° |
| 2026-04-27 00:36 | 25.45789 | -81.36664 | 19983 ft | 396 kts | 2° |
| 2026-04-27 00:36 | 25.48523 | -81.36679 | 19984 ft | 391 kts | 350° |
| 2026-04-27 00:37 | 25.51164 | -81.37318 | 19979 ft | 387 kts | 339° |
| 2026-04-27 00:37 | 25.53601 | -81.38539 | 19976 ft | 384 kts | 327° |
| 2026-04-27 00:37 | 25.55869 | -81.40093 | 19976 ft | 384 kts | 326° |
| 2026-04-27 00:37 | 25.58133 | -81.41653 | 19976 ft | 384 kts | 326° |
| 2026-04-27 00:38 | 25.60373 | -81.43194 | 19979 ft | 384 kts | 326° |
| 2026-04-27 00:38 | 25.62641 | -81.44749 | 19972 ft | 384 kts | 326° |
| 2026-04-27 00:38 | 25.64910 | -81.46303 | 19982 ft | 384 kts | 326° |
| 2026-04-27 00:38 | 25.67178 | -81.47856 | 19973 ft | 383 kts | 326° |
| 2026-04-27 00:39 | 25.69449 | -81.49413 | 19975 ft | 383 kts | 326° |
| 2026-04-27 00:39 | 25.71714 | -81.50968 | 19980 ft | 383 kts | 326° |
| 2026-04-27 00:39 | 25.73981 | -81.52526 | 19975 ft | 384 kts | 326° |
| 2026-04-27 00:39 | 25.76251 | -81.54086 | 19972 ft | 384 kts | 326° |
| 2026-04-27 00:40 | 25.78524 | -81.55649 | 19975 ft | 384 kts | 326° |
| 2026-04-27 00:40 | 25.80794 | -81.57208 | 19979 ft | 384 kts | 326° |
| 2026-04-27 00:40 | 25.83063 | -81.58769 | 19980 ft | 384 kts | 326° |
| 2026-04-27 00:40 | 25.85301 | -81.60311 | 19980 ft | 384 kts | 326° |
| 2026-04-27 00:41 | 25.87614 | -81.61796 | 19980 ft | 385 kts | 332° |
| 2026-04-27 00:41 | 25.90138 | -81.62823 | 19981 ft | 389 kts | 343° |
| 2026-04-27 00:41 | 25.92786 | -81.63451 | 19983 ft | 390 kts | 346° |
| 2026-04-27 00:41 | 25.95445 | -81.64060 | 19984 ft | 390 kts | 346° |
| 2026-04-27 00:42 | 25.98100 | -81.64672 | 19985 ft | 390 kts | 345° |
| 2026-04-27 00:42 | 26.00755 | -81.65289 | 19985 ft | 390 kts | 345° |
| 2026-04-27 00:42 | 26.03410 | -81.65907 | 19978 ft | 390 kts | 345° |
| 2026-04-27 00:42 | 26.06065 | -81.66524 | 19991 ft | 390 kts | 345° |
| 2026-04-27 00:43 | 26.08722 | -81.67142 | 19997 ft | 390 kts | 345° |
| 2026-04-27 00:43 | 26.11340 | -81.67753 | 19995 ft | 390 kts | 345° |
| 2026-04-27 00:43 | 26.13995 | -81.68372 | 19989 ft | 390 kts | 345° |
| 2026-04-27 00:43 | 26.16654 | -81.68992 | 20001 ft | 390 kts | 345° |
| 2026-04-27 00:44 | 26.19305 | -81.69610 | 19988 ft | 389 kts | 345° |
| 2026-04-27 00:44 | 26.21956 | -81.70230 | 19985 ft | 389 kts | 345° |
| 2026-04-27 00:44 | 26.24605 | -81.70848 | 19985 ft | 389 kts | 345° |
| 2026-04-27 00:44 | 26.27254 | -81.71466 | 19980 ft | 389 kts | 345° |
| 2026-04-27 00:45 | 26.29904 | -81.72085 | 19994 ft | 390 kts | 345° |
| 2026-04-27 00:45 | 26.32524 | -81.72698 | 19987 ft | 389 kts | 345° |
| 2026-04-27 00:45 | 26.35176 | -81.73318 | 19979 ft | 390 kts | 345° |
| 2026-04-27 00:45 | 26.37829 | -81.73936 | 19978 ft | 390 kts | 345° |
| 2026-04-27 00:46 | 26.40482 | -81.74555 | 19978 ft | 390 kts | 345° |
| 2026-04-27 00:46 | 26.43133 | -81.75176 | 19976 ft | 389 kts | 345° |
| 2026-04-27 00:46 | 26.45787 | -81.75800 | 19974 ft | 389 kts | 345° |
| 2026-04-27 00:46 | 26.48436 | -81.76422 | 19972 ft | 389 kts | 345° |
| 2026-04-27 00:47 | 26.51089 | -81.77032 | 19969 ft | 390 kts | 347° |
| 2026-04-27 00:47 | 26.53791 | -81.77390 | 19970 ft | 392 kts | 351° |
| 2026-04-27 00:47 | 26.56469 | -81.77701 | 19971 ft | 392 kts | 351° |
| 2026-04-27 00:47 | 26.59177 | -81.78018 | 19970 ft | 391 kts | 351° |
| 2026-04-27 00:48 | 26.61884 | -81.78338 | 19959 ft | 391 kts | 351° |
| 2026-04-27 00:48 | 26.64590 | -81.78661 | 19967 ft | 391 kts | 351° |
| 2026-04-27 00:48 | 26.67303 | -81.78985 | 19962 ft | 392 kts | 351° |
| 2026-04-27 00:48 | 26.70013 | -81.79307 | 19958 ft | 392 kts | 351° |
| 2026-04-27 00:49 | 26.72726 | -81.79628 | 19962 ft | 392 kts | 351° |
| 2026-04-27 00:49 | 26.75440 | -81.79949 | 19960 ft | 393 kts | 351° |
| 2026-04-27 00:49 | 26.78118 | -81.80266 | 19962 ft | 392 kts | 351° |
| 2026-04-27 00:49 | 26.80833 | -81.80586 | 19964 ft | 393 kts | 351° |
| 2026-04-27 00:50 | 26.83554 | -81.80906 | 19963 ft | 393 kts | 351° |
| 2026-04-27 00:50 | 26.88988 | -81.81548 | 19967 ft | 393 kts | 351° |
| 2026-04-27 00:50 | 26.91706 | -81.81872 | 19967 ft | 393 kts | 351° |
| 2026-04-27 00:51 | 26.94427 | -81.82196 | 19979 ft | 393 kts | 351° |
| 2026-04-27 00:51 | 26.97149 | -81.82520 | 19979 ft | 393 kts | 351° |
| 2026-04-27 00:51 | 26.99870 | -81.82843 | 19977 ft | 393 kts | 351° |
| 2026-04-27 00:51 | 27.02555 | -81.83161 | 19977 ft | 393 kts | 351° |
| 2026-04-27 00:52 | 27.05269 | -81.83516 | 19974 ft | 392 kts | 347° |
| 2026-04-27 00:52 | 27.07886 | -81.84309 | 19975 ft | 389 kts | 336° |
| 2026-04-27 00:52 | 27.10333 | -81.85662 | 19974 ft | 386 kts | 326° |
| 2026-04-27 00:52 | 27.12508 | -81.87420 | 19974 ft | 385 kts | 321° |
| 2026-04-27 00:53 | 27.14642 | -81.89232 | 19971 ft | 385 kts | 321° |
| 2026-04-27 00:53 | 27.16752 | -81.91019 | 19949 ft | 384 kts | 321° |
| 2026-04-27 00:53 | 27.18858 | -81.92794 | 19710 ft | 374 kts | 321° |
| 2026-04-27 00:53 | 27.20920 | -81.94531 | 19323 ft | 368 kts | 321° |
| 2026-04-27 00:54 | 27.22959 | -81.96251 | 18853 ft | 365 kts | 321° |
| 2026-04-27 00:54 | 27.24983 | -81.97961 | 18384 ft | 363 kts | 321° |
| 2026-04-27 00:54 | 27.26996 | -81.99665 | 17852 ft | 361 kts | 321° |
| 2026-04-27 00:54 | 27.28993 | -82.01361 | 17370 ft | 358 kts | 321° |
| 2026-04-27 00:55 | 27.30966 | -82.03037 | 16893 ft | 354 kts | 322° |
| 2026-04-27 00:55 | 27.32922 | -82.04698 | 16420 ft | 351 kts | 322° |
| 2026-04-27 00:55 | 27.34835 | -82.06323 | 15961 ft | 348 kts | 322° |
| 2026-04-27 00:55 | 27.36758 | -82.07959 | 15496 ft | 345 kts | 322° |
| 2026-04-27 00:56 | 27.38645 | -82.09618 | 14999 ft | 344 kts | 320° |
| 2026-04-27 00:56 | 27.40493 | -82.11319 | 14513 ft | 342 kts | 319° |
| 2026-04-27 00:56 | 27.42314 | -82.13035 | 14027 ft | 341 kts | 319° |
| 2026-04-27 00:56 | 27.44123 | -82.14755 | 13508 ft | 340 kts | 319° |
| 2026-04-27 00:57 | 27.45870 | -82.16532 | 12986 ft | 337 kts | 316° |
| 2026-04-27 00:57 | 27.47552 | -82.18361 | 12496 ft | 334 kts | 315° |
| 2026-04-27 00:57 | 27.49194 | -82.20201 | 12012 ft | 332 kts | 315° |
| 2026-04-27 00:57 | 27.50817 | -82.22029 | 11516 ft | 329 kts | 315° |
| 2026-04-27 00:58 | 27.52421 | -82.23821 | 11005 ft | 328 kts | 315° |
| 2026-04-27 00:58 | 27.54003 | -82.25657 | 10501 ft | 327 kts | 308° |
| 2026-04-27 00:58 | 27.54951 | -82.27917 | 10348 ft | 316 kts | 284° |
| 2026-04-27 00:58 | 27.55012 | -82.30338 | 10230 ft | 306 kts | 264° |
| 2026-04-27 00:59 | 27.54796 | -82.32675 | 10070 ft | 295 kts | 272° |
| 2026-04-27 00:59 | 27.55134 | -82.34899 | 9826 ft | 285 kts | 292° |
| 2026-04-27 00:59 | 27.55702 | -82.36204 | 9720 ft | 275 kts | 301° |
| 2026-04-27 00:59 | 27.56598 | -82.38021 | 9586 ft | 256 kts | 300° |
| 2026-04-27 01:00 | 27.57443 | -82.39737 | 9208 ft | 249 kts | 300° |
| 2026-04-27 01:00 | 27.58278 | -82.41441 | 8669 ft | 248 kts | 300° |
| 2026-04-27 01:00 | 27.59103 | -82.43127 | 8200 ft | 244 kts | 300° |
| 2026-04-27 01:00 | 27.60176 | -82.45317 | 7607 ft | 238 kts | 300° |
| 2026-04-27 01:01 | 27.60975 | -82.46935 | 7172 ft | 234 kts | 300° |
| 2026-04-27 01:01 | 27.61509 | -82.48011 | 6881 ft | 232 kts | 300° |
| 2026-04-27 01:01 | 27.62289 | -82.49586 | 6458 ft | 229 kts | 300° |
| 2026-04-27 01:01 | 27.63052 | -82.51126 | 6015 ft | 227 kts | 301° |
| 2026-04-27 01:02 | 27.63819 | -82.52671 | 5568 ft | 225 kts | 300° |
| 2026-04-27 01:02 | 27.64575 | -82.54201 | 5127 ft | 222 kts | 300° |
| 2026-04-27 01:02 | 27.65319 | -82.55714 | 4763 ft | 219 kts | 300° |
| 2026-04-27 01:02 | 27.66054 | -82.57214 | 4575 ft | 219 kts | 300° |
| 2026-04-27 01:03 | 27.66790 | -82.58714 | 4469 ft | 219 kts | 301° |
| 2026-04-27 01:03 | 27.67528 | -82.60211 | 4357 ft | 218 kts | 301° |
| 2026-04-27 01:03 | 27.68254 | -82.61683 | 4252 ft | 217 kts | 301° |
| 2026-04-27 01:03 | 27.68982 | -82.63154 | 4158 ft | 210 kts | 301° |
| 2026-04-27 01:04 | 27.69794 | -82.64484 | 4070 ft | 204 kts | 317° |
| 2026-04-27 01:04 | 27.70982 | -82.65336 | 3938 ft | 204 kts | 340° |
| 2026-04-27 01:04 | 27.72367 | -82.65651 | 3738 ft | 204 kts | 350° |
| 2026-04-27 01:04 | 27.73764 | -82.65882 | 3505 ft | 200 kts | 350° |
| 2026-04-27 01:05 | 27.75114 | -82.66110 | 3225 ft | 191 kts | 349° |
| 2026-04-27 01:05 | 27.76406 | -82.66332 | 2949 ft | 184 kts | 349° |
| 2026-04-27 01:05 | 27.77656 | -82.66546 | 2672 ft | 178 kts | 349° |
| 2026-04-27 01:05 | 27.78836 | -82.66740 | 2340 ft | 170 kts | 349° |
| 2026-04-27 01:06 | 27.79976 | -82.66894 | 2087 ft | 159 kts | 350° |
| 2026-04-27 01:06 | 27.81042 | -82.67086 | 1812 ft | 152 kts | 348° |
| 2026-04-27 01:06 | 27.82052 | -82.67265 | 1634 ft | 138 kts | 349° |
| 2026-04-27 01:06 | 27.82968 | -82.67424 | 1447 ft | 130 kts | 349° |
| 2026-04-27 01:07 | 27.83853 | -82.67580 | 1249 ft | 127 kts | 348° |
| 2026-04-27 01:07 | 27.84720 | -82.67735 | 1064 ft | 125 kts | 348° |
| 2026-04-27 01:07 | 27.85585 | -82.67881 | 914 ft | 126 kts | 347° |
| 2026-04-27 01:07 | 27.86454 | -82.68048 | 707 ft | 127 kts | 348° |
| 2026-04-27 01:08 | 27.87315 | -82.68206 | 567 ft | 127 kts | 349° |
| 2026-04-27 01:08 | 27.88186 | -82.68353 | 390 ft | 126 kts | 350° |
| 2026-04-27 01:08 | 27.89055 | -82.68500 | 237 ft | 127 kts | 349° |
| 2026-04-27 01:08 | 27.89934 | -82.68653 | 60 ft | 127 kts | 349° |
| 2026-04-27 01:09 | 27.90701 | -82.68786 | 25 ft | 77 kts | 351° |
| 2026-04-27 01:09 | 27.91031 | -82.68845 | 23 ft | 40 kts | 351° |
| 2026-04-27 01:09 | 27.91224 | -82.68884 | 22 ft | 13 kts | 329° |
| 2026-04-27 01:09 | 27.91226 | -82.68972 | 23 ft | 9 kts | 256° |
| 2026-04-27 01:10 | 27.91223 | -82.68991 | 23 ft | 1 kts | 257° |
| 2026-04-27 01:10 | 27.91193 | -82.69027 | 24 ft | 10 kts | 188° |
| 2026-04-27 01:10 | 27.91114 | -82.69013 | 24 ft | 13 kts | 172° |
| 2026-04-27 01:10 | 27.91010 | -82.68996 | 25 ft | 16 kts | 171° |
| 2026-04-27 01:11 | 27.90896 | -82.68976 | 24 ft | 17 kts | 172° |
| 2026-04-27 01:11 | 27.90836 | -82.69029 | 24 ft | 13 kts | 271° |
| 2026-04-27 01:11 | 27.90837 | -82.69137 | 24 ft | 14 kts | 268° |
| 2026-04-27 01:11 | 27.90832 | -82.69252 | 24 ft | 15 kts | 268° |
| 2026-04-27 01:12 | 27.90824 | -82.69333 | 24 ft | 9 kts | 239° |
| 2026-04-27 01:12 | 27.90766 | -82.69341 | 26 ft | 8 kts | 172° |
| 2026-04-27 01:12 | 27.90743 | -82.69339 | 24 ft | 3 kts | 177° |
| 2026-04-27 01:12 | 27.90738 | -82.69339 | 24 ft | 0 kts | 177° |